sensor_id;sensor_type;location;lat;lon;timestamp;P1;durP1;ratioP1;P2;durP2;ratioP2
61638;SDS011;47544;52.484;4.658;2022-11-21T00:00:04;46.45;;;28.52;;
61638;SDS011;47544;52.484;4.658;2022-11-21T00:00:17;45.72;;;28.10;;
61638;SDS011;47544;52.484;4.658;2022-11-21T00:00:28;45.35;;;27.77;;
61638;SDS011;47544;52.484;4.658;2022-11-21T00:00:40;46.20;;;28.25;;
61638;SDS011;47544;52.484;4.658;2022-11-21T00:00:56;49.38;;;28.98;;
61638;SDS011;47544;52.484;4.658;2022-11-21T00:01:12;49.75;;;29.33;;
61638;SDS011;47544;52.484;4.658;2022-11-21T00:01:25;47.13;;;28.95;;
61638;SDS011;47544;52.484;4.658;2022-11-21T00:01:36;47.08;;;28.88;;
61638;SDS011;47544;52.484;4.658;2022-11-21T00:01:48;47.83;;;29.17;;
61638;SDS011;47544;52.484;4.658;2022-11-21T00:01:59;46.60;;;28.65;;
61638;SDS011;47544;52.484;4.658;2022-11-21T00:02:10;46.85;;;28.13;;
61638;SDS011;47544;52.484;4.658;2022-11-21T00:02:21;47.38;;;28.55;;
61638;SDS011;47544;52.484;4.658;2022-11-21T00:02:32;48.03;;;28.75;;
61638;SDS011;47544;52.484;4.658;2022-11-21T00:02:46;47.72;;;28.73;;
61638;SDS011;47544;52.484;4.658;2022-11-21T00:03:01;46.40;;;28.23;;
61638;SDS011;47544;52.484;4.658;2022-11-21T00:03:12;45.20;;;27.92;;
61638;SDS011;47544;52.484;4.658;2022-11-21T00:03:23;45.53;;;28.15;;
61638;SDS011;47544;52.484;4.658;2022-11-21T00:03:37;46.33;;;28.02;;
61638;SDS011;47544;52.484;4.658;2022-11-21T00:03:51;46.88;;;28.20;;
61638;SDS011;47544;52.484;4.658;2022-11-21T00:04:02;46.53;;;28.23;;
61638;SDS011;47544;52.484;4.658;2022-11-21T00:04:13;45.28;;;28.35;;
61638;SDS011;47544;52.484;4.658;2022-11-21T00:04:24;46.67;;;28.50;;
61638;SDS011;47544;52.484;4.658;2022-11-21T00:04:35;46.42;;;28.33;;
61638;SDS011;47544;52.484;4.658;2022-11-21T00:04:47;46.63;;;27.80;;
61638;SDS011;47544;52.484;4.658;2022-11-21T00:04:58;45.72;;;27.98;;
61638;SDS011;47544;52.484;4.658;2022-11-21T00:05:09;45.57;;;28.07;;
61638;SDS011;47544;52.484;4.658;2022-11-21T00:05:20;44.88;;;28.10;;
61638;SDS011;47544;52.484;4.658;2022-11-21T00:05:31;43.90;;;27.65;;
61638;SDS011;47544;52.484;4.658;2022-11-21T00:05:43;44.13;;;27.83;;
61638;SDS011;47544;52.484;4.658;2022-11-21T00:05:55;44.63;;;27.70;;
61638;SDS011;47544;52.484;4.658;2022-11-21T00:06:06;44.63;;;27.63;;
61638;SDS011;47544;52.484;4.658;2022-11-21T00:06:19;44.58;;;27.63;;
61638;SDS011;47544;52.484;4.658;2022-11-21T00:06:30;44.42;;;27.50;;
61638;SDS011;47544;52.484;4.658;2022-11-21T00:06:41;44.03;;;27.42;;
61638;SDS011;47544;52.484;4.658;2022-11-21T00:06:52;43.53;;;27.67;;
61638;SDS011;47544;52.484;4.658;2022-11-21T00:07:06;45.40;;;28.55;;
61638;SDS011;47544;52.484;4.658;2022-11-21T00:07:17;45.13;;;28.83;;
61638;SDS011;47544;52.484;4.658;2022-11-21T00:07:29;44.85;;;28.85;;
61638;SDS011;47544;52.484;4.658;2022-11-21T00:07:40;45.65;;;28.17;;
61638;SDS011;47544;52.484;4.658;2022-11-21T00:07:55;44.70;;;27.67;;
61638;SDS011;47544;52.484;4.658;2022-11-21T00:08:06;43.70;;;27.75;;
61638;SDS011;47544;52.484;4.658;2022-11-21T00:08:19;43.22;;;27.63;;
61638;SDS011;47544;52.484;4.658;2022-11-21T00:08:31;43.83;;;27.65;;
61638;SDS011;47544;52.484;4.658;2022-11-21T00:08:43;43.75;;;27.77;;
61638;SDS011;47544;52.484;4.658;2022-11-21T00:08:54;42.85;;;27.45;;
61638;SDS011;47544;52.484;4.658;2022-11-21T00:09:06;41.38;;;27.15;;
61638;SDS011;47544;52.484;4.658;2022-11-21T00:09:20;41.90;;;27.42;;
61638;SDS011;47544;52.484;4.658;2022-11-21T00:09:30;41.97;;;27.25;;
61638;SDS011;47544;52.484;4.658;2022-11-21T00:09:43;42.97;;;27.65;;
61638;SDS011;47544;52.484;4.658;2022-11-21T00:09:54;45.05;;;27.98;;
61638;SDS011;47544;52.484;4.658;2022-11-21T00:10:06;46.70;;;28.33;;
61638;SDS011;47544;52.484;4.658;2022-11-21T00:10:17;44.95;;;27.75;;
61638;SDS011;47544;52.484;4.658;2022-11-21T00:10:28;42.78;;;27.33;;
61638;SDS011;47544;52.484;4.658;2022-11-21T00:10:40;43.75;;;27.92;;
61638;SDS011;47544;52.484;4.658;2022-11-21T00:10:52;44.92;;;28.65;;
61638;SDS011;47544;52.484;4.658;2022-11-21T00:11:05;43.25;;;27.83;;
61638;SDS011;47544;52.484;4.658;2022-11-21T00:11:18;42.35;;;27.00;;
61638;SDS011;47544;52.484;4.658;2022-11-21T00:11:29;41.78;;;26.70;;
61638;SDS011;47544;52.484;4.658;2022-11-21T00:11:40;42.83;;;27.20;;
61638;SDS011;47544;52.484;4.658;2022-11-21T00:11:58;44.78;;;28.10;;
61638;SDS011;47544;52.484;4.658;2022-11-21T00:12:10;43.95;;;28.15;;
61638;SDS011;47544;52.484;4.658;2022-11-21T00:12:21;44.05;;;28.13;;
61638;SDS011;47544;52.484;4.658;2022-11-21T00:12:31;42.63;;;27.58;;
61638;SDS011;47544;52.484;4.658;2022-11-21T00:12:51;40.85;;;27.17;;
61638;SDS011;47544;52.484;4.658;2022-11-21T00:13:03;39.85;;;26.95;;
61638;SDS011;47544;52.484;4.658;2022-11-21T00:13:15;40.65;;;27.10;;
61638;SDS011;47544;52.484;4.658;2022-11-21T00:13:30;41.75;;;27.08;;
61638;SDS011;47544;52.484;4.658;2022-11-21T00:13:41;42.78;;;27.30;;
61638;SDS011;47544;52.484;4.658;2022-11-21T00:13:52;41.95;;;27.38;;
61638;SDS011;47544;52.484;4.658;2022-11-21T00:14:04;40.67;;;26.58;;
61638;SDS011;47544;52.484;4.658;2022-11-21T00:14:16;40.88;;;26.08;;
61638;SDS011;47544;52.484;4.658;2022-11-21T00:14:27;39.55;;;25.52;;
61638;SDS011;47544;52.484;4.658;2022-11-21T00:14:38;37.75;;;25.05;;
61638;SDS011;47544;52.484;4.658;2022-11-21T00:14:49;38.78;;;25.90;;
61638;SDS011;47544;52.484;4.658;2022-11-21T00:15:00;40.58;;;26.75;;
61638;SDS011;47544;52.484;4.658;2022-11-21T00:15:11;41.35;;;27.27;;
61638;SDS011;47544;52.484;4.658;2022-11-21T00:15:22;41.67;;;27.00;;
61638;SDS011;47544;52.484;4.658;2022-11-21T00:15:34;40.80;;;27.05;;
61638;SDS011;47544;52.484;4.658;2022-11-21T00:15:45;41.42;;;27.23;;
61638;SDS011;47544;52.484;4.658;2022-11-21T00:16:01;41.50;;;27.23;;
61638;SDS011;47544;52.484;4.658;2022-11-21T00:16:12;39.90;;;26.52;;
61638;SDS011;47544;52.484;4.658;2022-11-21T00:16:24;40.25;;;26.48;;
61638;SDS011;47544;52.484;4.658;2022-11-21T00:16:36;40.97;;;26.27;;
61638;SDS011;47544;52.484;4.658;2022-11-21T00:16:49;40.75;;;26.75;;
61638;SDS011;47544;52.484;4.658;2022-11-21T00:17:00;41.05;;;26.63;;
61638;SDS011;47544;52.484;4.658;2022-11-21T00:17:11;40.88;;;26.80;;
61638;SDS011;47544;52.484;4.658;2022-11-21T00:17:22;41.38;;;26.70;;
61638;SDS011;47544;52.484;4.658;2022-11-21T00:17:33;41.30;;;26.48;;
61638;SDS011;47544;52.484;4.658;2022-11-21T00:17:46;40.15;;;26.13;;
61638;SDS011;47544;52.484;4.658;2022-11-21T00:18:11;39.10;;;26.33;;
61638;SDS011;47544;52.484;4.658;2022-11-21T00:18:24;39.10;;;25.70;;
61638;SDS011;47544;52.484;4.658;2022-11-21T00:18:34;39.08;;;25.50;;
61638;SDS011;47544;52.484;4.658;2022-11-21T00:18:45;39.40;;;25.75;;
61638;SDS011;47544;52.484;4.658;2022-11-21T00:18:56;37.63;;;25.52;;
61638;SDS011;47544;52.484;4.658;2022-11-21T00:19:07;37.13;;;25.70;;
61638;SDS011;47544;52.484;4.658;2022-11-21T00:19:20;37.13;;;25.65;;
61638;SDS011;47544;52.484;4.658;2022-11-21T00:19:31;38.15;;;25.70;;
61638;SDS011;47544;52.484;4.658;2022-11-21T00:19:44;38.53;;;25.92;;
61638;SDS011;47544;52.484;4.658;2022-11-21T00:19:57;39.40;;;25.75;;
61638;SDS011;47544;52.484;4.658;2022-11-21T00:20:08;39.72;;;25.60;;
61638;SDS011;47544;52.484;4.658;2022-11-21T00:20:20;38.42;;;24.70;;
61638;SDS011;47544;52.484;4.658;2022-11-21T00:20:34;39.28;;;25.80;;
61638;SDS011;47544;52.484;4.658;2022-11-21T00:20:46;38.97;;;26.00;;
61638;SDS011;47544;52.484;4.658;2022-11-21T00:21:01;38.67;;;25.88;;
61638;SDS011;47544;52.484;4.658;2022-11-21T00:21:20;37.58;;;25.13;;
61638;SDS011;47544;52.484;4.658;2022-11-21T00:21:31;37.63;;;25.38;;
61638;SDS011;47544;52.484;4.658;2022-11-21T00:21:42;37.78;;;25.83;;
61638;SDS011;47544;52.484;4.658;2022-11-21T00:21:54;38.25;;;25.77;;
61638;SDS011;47544;52.484;4.658;2022-11-21T00:22:05;38.97;;;25.88;;
61638;SDS011;47544;52.484;4.658;2022-11-21T00:22:16;38.80;;;25.77;;
61638;SDS011;47544;52.484;4.658;2022-11-21T00:22:26;38.75;;;25.48;;
61638;SDS011;47544;52.484;4.658;2022-11-21T00:22:40;37.17;;;24.85;;
61638;SDS011;47544;52.484;4.658;2022-11-21T00:22:50;37.60;;;25.00;;
61638;SDS011;47544;52.484;4.658;2022-11-21T00:23:03;39.20;;;25.42;;
61638;SDS011;47544;52.484;4.658;2022-11-21T00:23:14;40.10;;;26.13;;
61638;SDS011;47544;52.484;4.658;2022-11-21T00:23:27;39.38;;;25.77;;
61638;SDS011;47544;52.484;4.658;2022-11-21T00:23:38;39.50;;;25.17;;
61638;SDS011;47544;52.484;4.658;2022-11-21T00:23:50;39.90;;;25.55;;
61638;SDS011;47544;52.484;4.658;2022-11-21T00:24:08;40.72;;;26.25;;
61638;SDS011;47544;52.484;4.658;2022-11-21T00:24:19;39.45;;;25.80;;
61638;SDS011;47544;52.484;4.658;2022-11-21T00:24:30;37.97;;;25.27;;
61638;SDS011;47544;52.484;4.658;2022-11-21T00:24:41;36.72;;;25.10;;
61638;SDS011;47544;52.484;4.658;2022-11-21T00:24:52;37.65;;;25.67;;
61638;SDS011;47544;52.484;4.658;2022-11-21T00:25:03;37.67;;;25.80;;
61638;SDS011;47544;52.484;4.658;2022-11-21T00:25:15;36.88;;;25.23;;
61638;SDS011;47544;52.484;4.658;2022-11-21T00:25:25;35.63;;;24.83;;
61638;SDS011;47544;52.484;4.658;2022-11-21T00:25:37;35.83;;;25.05;;
61638;SDS011;47544;52.484;4.658;2022-11-21T00:25:48;37.07;;;25.63;;
61638;SDS011;47544;52.484;4.658;2022-11-21T00:26:02;38.83;;;26.77;;
61638;SDS011;47544;52.484;4.658;2022-11-21T00:26:13;39.75;;;26.60;;
61638;SDS011;47544;52.484;4.658;2022-11-21T00:26:24;39.75;;;25.73;;
61638;SDS011;47544;52.484;4.658;2022-11-21T00:26:36;38.47;;;25.23;;
61638;SDS011;47544;52.484;4.658;2022-11-21T00:26:48;36.55;;;24.55;;
61638;SDS011;47544;52.484;4.658;2022-11-21T00:26:58;36.42;;;24.40;;
61638;SDS011;47544;52.484;4.658;2022-11-21T00:27:09;36.00;;;24.13;;
61638;SDS011;47544;52.484;4.658;2022-11-21T00:27:20;35.72;;;24.13;;
61638;SDS011;47544;52.484;4.658;2022-11-21T00:27:31;35.40;;;24.08;;
61638;SDS011;47544;52.484;4.658;2022-11-21T00:27:42;36.17;;;24.47;;
61638;SDS011;47544;52.484;4.658;2022-11-21T00:27:53;36.53;;;24.67;;
61638;SDS011;47544;52.484;4.658;2022-11-21T00:28:04;35.92;;;24.67;;
61638;SDS011;47544;52.484;4.658;2022-11-21T00:28:19;36.58;;;25.33;;
61638;SDS011;47544;52.484;4.658;2022-11-21T00:28:30;36.53;;;24.88;;
61638;SDS011;47544;52.484;4.658;2022-11-21T00:28:42;37.75;;;24.58;;
61638;SDS011;47544;52.484;4.658;2022-11-21T00:28:55;36.78;;;24.00;;
61638;SDS011;47544;52.484;4.658;2022-11-21T00:29:06;36.13;;;24.42;;
61638;SDS011;47544;52.484;4.658;2022-11-21T00:29:20;35.35;;;24.65;;
61638;SDS011;47544;52.484;4.658;2022-11-21T00:29:31;37.10;;;24.95;;
61638;SDS011;47544;52.484;4.658;2022-11-21T00:29:42;36.83;;;24.52;;
61638;SDS011;47544;52.484;4.658;2022-11-21T00:29:53;36.05;;;24.30;;
61638;SDS011;47544;52.484;4.658;2022-11-21T00:30:04;35.50;;;24.03;;
61638;SDS011;47544;52.484;4.658;2022-11-21T00:30:17;37.13;;;24.63;;
61638;SDS011;47544;52.484;4.658;2022-11-21T00:30:28;37.00;;;24.77;;
61638;SDS011;47544;52.484;4.658;2022-11-21T00:30:41;37.03;;;24.90;;
61638;SDS011;47544;52.484;4.658;2022-11-21T00:30:52;38.25;;;25.38;;
61638;SDS011;47544;52.484;4.658;2022-11-21T00:31:03;39.60;;;25.58;;
61638;SDS011;47544;52.484;4.658;2022-11-21T00:31:17;39.10;;;25.20;;
61638;SDS011;47544;52.484;4.658;2022-11-21T00:31:30;37.58;;;24.63;;
61638;SDS011;47544;52.484;4.658;2022-11-21T00:31:41;36.65;;;24.23;;
61638;SDS011;47544;52.484;4.658;2022-11-21T00:31:53;35.28;;;24.00;;
61638;SDS011;47544;52.484;4.658;2022-11-21T00:32:04;36.00;;;24.35;;
61638;SDS011;47544;52.484;4.658;2022-11-21T00:32:18;36.95;;;24.70;;
61638;SDS011;47544;52.484;4.658;2022-11-21T00:32:29;37.83;;;24.95;;
61638;SDS011;47544;52.484;4.658;2022-11-21T00:32:40;37.97;;;25.43;;
61638;SDS011;47544;52.484;4.658;2022-11-21T00:32:51;37.83;;;25.13;;
61638;SDS011;47544;52.484;4.658;2022-11-21T00:33:02;37.17;;;24.97;;
61638;SDS011;47544;52.484;4.658;2022-11-21T00:33:13;37.10;;;25.33;;
61638;SDS011;47544;52.484;4.658;2022-11-21T00:33:24;37.78;;;25.70;;
61638;SDS011;47544;52.484;4.658;2022-11-21T00:33:38;38.00;;;25.83;;
61638;SDS011;47544;52.484;4.658;2022-11-21T00:33:52;37.63;;;25.23;;
61638;SDS011;47544;52.484;4.658;2022-11-21T00:34:04;36.97;;;24.83;;
61638;SDS011;47544;52.484;4.658;2022-11-21T00:34:15;37.22;;;24.83;;
61638;SDS011;47544;52.484;4.658;2022-11-21T00:34:26;38.55;;;25.23;;
61638;SDS011;47544;52.484;4.658;2022-11-21T00:34:37;40.03;;;25.58;;
61638;SDS011;47544;52.484;4.658;2022-11-21T00:34:48;39.53;;;25.60;;
61638;SDS011;47544;52.484;4.658;2022-11-21T00:34:59;39.25;;;25.30;;
61638;SDS011;47544;52.484;4.658;2022-11-21T00:35:11;37.22;;;24.77;;
61638;SDS011;47544;52.484;4.658;2022-11-21T00:35:24;37.67;;;24.92;;
61638;SDS011;47544;52.484;4.658;2022-11-21T00:35:35;37.10;;;24.88;;
61638;SDS011;47544;52.484;4.658;2022-11-21T00:35:46;37.28;;;25.10;;
61638;SDS011;47544;52.484;4.658;2022-11-21T00:35:57;36.47;;;24.98;;
61638;SDS011;47544;52.484;4.658;2022-11-21T00:36:08;37.25;;;24.65;;
61638;SDS011;47544;52.484;4.658;2022-11-21T00:36:20;37.88;;;24.45;;
61638;SDS011;47544;52.484;4.658;2022-11-21T00:36:31;39.25;;;24.55;;
61638;SDS011;47544;52.484;4.658;2022-11-21T00:36:42;39.15;;;24.73;;
61638;SDS011;47544;52.484;4.658;2022-11-21T00:36:54;38.63;;;24.90;;
61638;SDS011;47544;52.484;4.658;2022-11-21T00:37:05;37.40;;;24.70;;
61638;SDS011;47544;52.484;4.658;2022-11-21T00:37:16;37.03;;;24.65;;
61638;SDS011;47544;52.484;4.658;2022-11-21T00:37:27;37.55;;;24.83;;
61638;SDS011;47544;52.484;4.658;2022-11-21T00:37:39;37.95;;;25.27;;
61638;SDS011;47544;52.484;4.658;2022-11-21T00:37:51;37.08;;;24.73;;
61638;SDS011;47544;52.484;4.658;2022-11-21T00:38:05;37.25;;;24.67;;
61638;SDS011;47544;52.484;4.658;2022-11-21T00:38:17;38.28;;;25.08;;
61638;SDS011;47544;52.484;4.658;2022-11-21T00:38:28;39.63;;;26.02;;
61638;SDS011;47544;52.484;4.658;2022-11-21T00:38:45;40.30;;;25.90;;
61638;SDS011;47544;52.484;4.658;2022-11-21T00:38:56;38.45;;;25.38;;
61638;SDS011;47544;52.484;4.658;2022-11-21T00:39:08;37.70;;;25.48;;
61638;SDS011;47544;52.484;4.658;2022-11-21T00:39:19;37.00;;;24.92;;
61638;SDS011;47544;52.484;4.658;2022-11-21T00:39:30;35.58;;;24.40;;
61638;SDS011;47544;52.484;4.658;2022-11-21T00:39:41;36.03;;;24.27;;
61638;SDS011;47544;52.484;4.658;2022-11-21T00:39:52;38.42;;;24.80;;
61638;SDS011;47544;52.484;4.658;2022-11-21T00:40:04;39.70;;;24.92;;
61638;SDS011;47544;52.484;4.658;2022-11-21T00:40:15;38.80;;;24.42;;
61638;SDS011;47544;52.484;4.658;2022-11-21T00:40:27;38.13;;;24.05;;
61638;SDS011;47544;52.484;4.658;2022-11-21T00:40:38;37.80;;;24.27;;
61638;SDS011;47544;52.484;4.658;2022-11-21T00:41:01;39.47;;;25.02;;
61638;SDS011;47544;52.484;4.658;2022-11-21T00:41:15;38.47;;;25.38;;
61638;SDS011;47544;52.484;4.658;2022-11-21T00:41:26;37.97;;;24.77;;
61638;SDS011;47544;52.484;4.658;2022-11-21T00:41:45;38.20;;;24.75;;
61638;SDS011;47544;52.484;4.658;2022-11-21T00:42:10;38.38;;;24.98;;
61638;SDS011;47544;52.484;4.658;2022-11-21T00:42:24;38.17;;;25.10;;
61638;SDS011;47544;52.484;4.658;2022-11-21T00:42:36;37.90;;;25.20;;
61638;SDS011;47544;52.484;4.658;2022-11-21T00:42:47;38.83;;;25.30;;
61638;SDS011;47544;52.484;4.658;2022-11-21T00:42:58;38.85;;;25.08;;
61638;SDS011;47544;52.484;4.658;2022-11-21T00:43:09;39.95;;;25.50;;
61638;SDS011;47544;52.484;4.658;2022-11-21T00:43:22;38.60;;;24.95;;
61638;SDS011;47544;52.484;4.658;2022-11-21T00:43:33;37.72;;;24.63;;
61638;SDS011;47544;52.484;4.658;2022-11-21T00:43:45;38.05;;;24.35;;
61638;SDS011;47544;52.484;4.658;2022-11-21T00:43:56;39.53;;;24.63;;
61638;SDS011;47544;52.484;4.658;2022-11-21T00:44:07;39.03;;;24.13;;
61638;SDS011;47544;52.484;4.658;2022-11-21T00:44:18;38.88;;;24.45;;
61638;SDS011;47544;52.484;4.658;2022-11-21T00:44:28;38.22;;;24.33;;
61638;SDS011;47544;52.484;4.658;2022-11-21T00:44:39;38.88;;;25.13;;
61638;SDS011;47544;52.484;4.658;2022-11-21T00:44:53;39.38;;;25.45;;
61638;SDS011;47544;52.484;4.658;2022-11-21T00:45:07;39.70;;;25.67;;
61638;SDS011;47544;52.484;4.658;2022-11-21T00:45:19;39.95;;;25.42;;
61638;SDS011;47544;52.484;4.658;2022-11-21T00:45:30;38.72;;;24.27;;
61638;SDS011;47544;52.484;4.658;2022-11-21T00:45:41;38.85;;;24.25;;
61638;SDS011;47544;52.484;4.658;2022-11-21T00:45:52;38.23;;;24.17;;
61638;SDS011;47544;52.484;4.658;2022-11-21T00:46:03;37.95;;;24.55;;
61638;SDS011;47544;52.484;4.658;2022-11-21T00:46:15;37.58;;;24.70;;
61638;SDS011;47544;52.484;4.658;2022-11-21T00:46:25;38.58;;;25.65;;
61638;SDS011;47544;52.484;4.658;2022-11-21T00:46:36;39.85;;;25.85;;
61638;SDS011;47544;52.484;4.658;2022-11-21T00:46:51;40.28;;;25.83;;
61638;SDS011;47544;52.484;4.658;2022-11-21T00:47:02;39.88;;;25.13;;
61638;SDS011;47544;52.484;4.658;2022-11-21T00:47:13;39.13;;;24.67;;
61638;SDS011;47544;52.484;4.658;2022-11-21T00:47:24;40.28;;;25.15;;
61638;SDS011;47544;52.484;4.658;2022-11-21T00:47:35;41.80;;;25.88;;
61638;SDS011;47544;52.484;4.658;2022-11-21T00:47:46;42.47;;;26.17;;
61638;SDS011;47544;52.484;4.658;2022-11-21T00:48:00;40.92;;;25.80;;
61638;SDS011;47544;52.484;4.658;2022-11-21T00:48:13;39.83;;;25.45;;
61638;SDS011;47544;52.484;4.658;2022-11-21T00:48:24;41.08;;;25.63;;
61638;SDS011;47544;52.484;4.658;2022-11-21T00:48:34;41.93;;;25.80;;
61638;SDS011;47544;52.484;4.658;2022-11-21T00:48:45;41.72;;;25.63;;
61638;SDS011;47544;52.484;4.658;2022-11-21T00:48:56;42.63;;;26.20;;
61638;SDS011;47544;52.484;4.658;2022-11-21T00:49:07;43.55;;;26.65;;
61638;SDS011;47544;52.484;4.658;2022-11-21T00:49:18;44.67;;;27.17;;
61638;SDS011;47544;52.484;4.658;2022-11-21T00:49:29;41.88;;;26.15;;
61638;SDS011;47544;52.484;4.658;2022-11-21T00:49:40;41.70;;;26.25;;
61638;SDS011;47544;52.484;4.658;2022-11-21T00:49:52;41.20;;;26.23;;
61638;SDS011;47544;52.484;4.658;2022-11-21T00:50:03;42.33;;;26.63;;
61638;SDS011;47544;52.484;4.658;2022-11-21T00:50:15;42.28;;;26.52;;
61638;SDS011;47544;52.484;4.658;2022-11-21T00:50:26;42.88;;;27.00;;
61638;SDS011;47544;52.484;4.658;2022-11-21T00:50:37;44.25;;;27.48;;
61638;SDS011;47544;52.484;4.658;2022-11-21T00:50:48;43.90;;;27.42;;
61638;SDS011;47544;52.484;4.658;2022-11-21T00:50:59;42.80;;;26.67;;
61638;SDS011;47544;52.484;4.658;2022-11-21T00:51:10;41.17;;;26.60;;
61638;SDS011;47544;52.484;4.658;2022-11-21T00:51:22;42.88;;;27.45;;
61638;SDS011;47544;52.484;4.658;2022-11-21T00:51:33;42.93;;;27.30;;
61638;SDS011;47544;52.484;4.658;2022-11-21T00:51:45;44.30;;;27.40;;
61638;SDS011;47544;52.484;4.658;2022-11-21T00:51:56;43.53;;;27.30;;
61638;SDS011;47544;52.484;4.658;2022-11-21T00:52:07;43.33;;;27.42;;
61638;SDS011;47544;52.484;4.658;2022-11-21T00:52:18;43.30;;;27.33;;
61638;SDS011;47544;52.484;4.658;2022-11-21T00:52:31;42.58;;;26.25;;
61638;SDS011;47544;52.484;4.658;2022-11-21T00:52:43;42.08;;;25.60;;
61638;SDS011;47544;52.484;4.658;2022-11-21T00:52:58;42.50;;;26.20;;
61638;SDS011;47544;52.484;4.658;2022-11-21T00:53:09;44.05;;;27.35;;
61638;SDS011;47544;52.484;4.658;2022-11-21T00:53:21;43.53;;;27.00;;
61638;SDS011;47544;52.484;4.658;2022-11-21T00:53:32;41.95;;;26.05;;
61638;SDS011;47544;52.484;4.658;2022-11-21T00:53:43;42.25;;;26.30;;
61638;SDS011;47544;52.484;4.658;2022-11-21T00:53:54;41.73;;;26.30;;
61638;SDS011;47544;52.484;4.658;2022-11-21T00:54:05;42.45;;;26.27;;
61638;SDS011;47544;52.484;4.658;2022-11-21T00:54:20;41.28;;;26.10;;
61638;SDS011;47544;52.484;4.658;2022-11-21T00:54:31;40.72;;;26.13;;
61638;SDS011;47544;52.484;4.658;2022-11-21T00:54:42;40.08;;;25.88;;
61638;SDS011;47544;52.484;4.658;2022-11-21T00:54:53;39.38;;;25.58;;
61638;SDS011;47544;52.484;4.658;2022-11-21T00:55:04;39.08;;;25.55;;
61638;SDS011;47544;52.484;4.658;2022-11-21T00:55:18;40.75;;;25.60;;
61638;SDS011;47544;52.484;4.658;2022-11-21T00:55:29;41.67;;;26.25;;
61638;SDS011;47544;52.484;4.658;2022-11-21T00:55:41;41.20;;;26.02;;
61638;SDS011;47544;52.484;4.658;2022-11-21T00:55:54;40.97;;;25.90;;
61638;SDS011;47544;52.484;4.658;2022-11-21T00:56:05;38.92;;;25.40;;
61638;SDS011;47544;52.484;4.658;2022-11-21T00:56:16;38.80;;;26.00;;
61638;SDS011;47544;52.484;4.658;2022-11-21T00:56:27;39.70;;;26.30;;
61638;SDS011;47544;52.484;4.658;2022-11-21T00:56:38;40.95;;;26.40;;
61638;SDS011;47544;52.484;4.658;2022-11-21T00:56:49;40.60;;;26.13;;
61638;SDS011;47544;52.484;4.658;2022-11-21T00:57:02;40.97;;;26.15;;
61638;SDS011;47544;52.484;4.658;2022-11-21T00:57:14;41.80;;;26.20;;
61638;SDS011;47544;52.484;4.658;2022-11-21T00:57:28;42.08;;;26.42;;
61638;SDS011;47544;52.484;4.658;2022-11-21T00:57:38;42.15;;;26.38;;
61638;SDS011;47544;52.484;4.658;2022-11-21T00:57:58;42.67;;;26.83;;
61638;SDS011;47544;52.484;4.658;2022-11-21T00:58:09;43.50;;;27.33;;
61638;SDS011;47544;52.484;4.658;2022-11-21T00:58:19;42.72;;;26.98;;
61638;SDS011;47544;52.484;4.658;2022-11-21T00:58:30;41.40;;;26.58;;
61638;SDS011;47544;52.484;4.658;2022-11-21T00:58:42;41.45;;;26.30;;
61638;SDS011;47544;52.484;4.658;2022-11-21T00:58:53;41.55;;;26.10;;
61638;SDS011;47544;52.484;4.658;2022-11-21T00:59:05;41.05;;;25.90;;
61638;SDS011;47544;52.484;4.658;2022-11-21T00:59:15;40.53;;;25.60;;
61638;SDS011;47544;52.484;4.658;2022-11-21T00:59:26;40.55;;;25.40;;
61638;SDS011;47544;52.484;4.658;2022-11-21T00:59:37;40.67;;;25.25;;
61638;SDS011;47544;52.484;4.658;2022-11-21T00:59:51;41.83;;;25.85;;
61638;SDS011;47544;52.484;4.658;2022-11-21T01:00:02;42.70;;;26.33;;
61638;SDS011;47544;52.484;4.658;2022-11-21T01:00:15;43.10;;;26.55;;
61638;SDS011;47544;52.484;4.658;2022-11-21T01:00:29;42.42;;;26.58;;
61638;SDS011;47544;52.484;4.658;2022-11-21T01:00:39;41.85;;;25.92;;
61638;SDS011;47544;52.484;4.658;2022-11-21T01:00:50;41.50;;;25.97;;
61638;SDS011;47544;52.484;4.658;2022-11-21T01:01:03;40.42;;;25.38;;
61638;SDS011;47544;52.484;4.658;2022-11-21T01:01:17;41.53;;;25.85;;
61638;SDS011;47544;52.484;4.658;2022-11-21T01:01:28;42.03;;;25.77;;
61638;SDS011;47544;52.484;4.658;2022-11-21T01:01:39;41.85;;;25.75;;
61638;SDS011;47544;52.484;4.658;2022-11-21T01:01:50;41.90;;;25.90;;
61638;SDS011;47544;52.484;4.658;2022-11-21T01:02:02;43.13;;;26.75;;
61638;SDS011;47544;52.484;4.658;2022-11-21T01:02:17;43.47;;;26.35;;
61638;SDS011;47544;52.484;4.658;2022-11-21T01:02:31;44.28;;;26.30;;
61638;SDS011;47544;52.484;4.658;2022-11-21T01:02:42;43.55;;;26.15;;
61638;SDS011;47544;52.484;4.658;2022-11-21T01:02:54;43.08;;;26.55;;
61638;SDS011;47544;52.484;4.658;2022-11-21T01:03:05;41.50;;;26.65;;
61638;SDS011;47544;52.484;4.658;2022-11-21T01:03:16;41.75;;;27.23;;
61638;SDS011;47544;52.484;4.658;2022-11-21T01:03:31;41.58;;;26.55;;
61638;SDS011;47544;52.484;4.658;2022-11-21T01:03:43;42.22;;;26.65;;
61638;SDS011;47544;52.484;4.658;2022-11-21T01:03:56;43.05;;;26.77;;
61638;SDS011;47544;52.484;4.658;2022-11-21T01:04:07;43.97;;;27.02;;
61638;SDS011;47544;52.484;4.658;2022-11-21T01:04:20;43.53;;;27.00;;
61638;SDS011;47544;52.484;4.658;2022-11-21T01:04:34;43.40;;;27.05;;
61638;SDS011;47544;52.484;4.658;2022-11-21T01:04:45;44.60;;;27.48;;
61638;SDS011;47544;52.484;4.658;2022-11-21T01:04:56;43.58;;;27.45;;
61638;SDS011;47544;52.484;4.658;2022-11-21T01:05:08;42.60;;;26.95;;
61638;SDS011;47544;52.484;4.658;2022-11-21T01:05:21;43.47;;;26.85;;
61638;SDS011;47544;52.484;4.658;2022-11-21T01:05:32;45.63;;;27.73;;
61638;SDS011;47544;52.484;4.658;2022-11-21T01:05:43;45.25;;;27.92;;
61638;SDS011;47544;52.484;4.658;2022-11-21T01:05:58;44.63;;;27.50;;
61638;SDS011;47544;52.484;4.658;2022-11-21T01:06:10;44.25;;;26.88;;
61638;SDS011;47544;52.484;4.658;2022-11-21T01:06:22;44.05;;;26.60;;
61638;SDS011;47544;52.484;4.658;2022-11-21T01:06:35;43.85;;;26.52;;
61638;SDS011;47544;52.484;4.658;2022-11-21T01:06:46;44.05;;;26.63;;
61638;SDS011;47544;52.484;4.658;2022-11-21T01:06:57;44.25;;;26.67;;
61638;SDS011;47544;52.484;4.658;2022-11-21T01:07:11;44.60;;;26.98;;
61638;SDS011;47544;52.484;4.658;2022-11-21T01:07:22;44.60;;;26.83;;
61638;SDS011;47544;52.484;4.658;2022-11-21T01:07:33;43.73;;;26.80;;
61638;SDS011;47544;52.484;4.658;2022-11-21T01:07:48;44.72;;;26.98;;
61638;SDS011;47544;52.484;4.658;2022-11-21T01:07:58;44.28;;;27.05;;
61638;SDS011;47544;52.484;4.658;2022-11-21T01:08:09;44.53;;;26.85;;
61638;SDS011;47544;52.484;4.658;2022-11-21T01:08:21;45.20;;;27.08;;
61638;SDS011;47544;52.484;4.658;2022-11-21T01:08:33;45.67;;;27.13;;
61638;SDS011;47544;52.484;4.658;2022-11-21T01:08:44;43.78;;;26.58;;
61638;SDS011;47544;52.484;4.658;2022-11-21T01:08:56;43.22;;;26.77;;
61638;SDS011;47544;52.484;4.658;2022-11-21T01:09:07;44.30;;;27.40;;
61638;SDS011;47544;52.484;4.658;2022-11-21T01:09:20;43.90;;;27.10;;
61638;SDS011;47544;52.484;4.658;2022-11-21T01:09:32;44.92;;;26.70;;
61638;SDS011;47544;52.484;4.658;2022-11-21T01:09:43;46.22;;;26.92;;
61638;SDS011;47544;52.484;4.658;2022-11-21T01:09:54;46.15;;;27.17;;
61638;SDS011;47544;52.484;4.658;2022-11-21T01:10:05;45.03;;;26.77;;